Prestwick, Alabama
Current Conditions -  °F | °C
As of 3:53 AM on Friday 19 Dec 2014 (Local Time) from KGZH Reporting Station
Overcast Overcast  
Wind Chill: 51°   Ceiling: 5000
Heat Index: 51°   Visibility: 10mi
Dew Point: 41°   Wind: 3mph
Humidity: 68%   Direction: 360°N
Pressure: 30.14"   Gusts: NA
Location:  31.4775°N, 87.9599°W
Report Text: KGZH 190953Z AUTO 36003KT 10SM OVC050 11/05 A3014 RMK AO2 SLP205 T01060050
Loading
Personal Weather Stations






























Interactive Weather Map New forecast layout! Learn more

10-Day Weather Forecast

Advertisements
Track Severe Weather on mobile